Time;durP1;ratioP1;P1;durP2;ratioP2;P2;SDS_P1;SDS_P2;PMS_P1;PMS_P2;Temp;Humidity;BMP_temperature;BMP_pressure;BME280_temperature;BME280_humidity;BME280_pressure;Samples;Min_cycle;Max_cycle;Signal;HPM_P1;HPM_P2
2022/12/19 00:01:21;;;;;;;3.97;2.73;;;-1.60;98.00;;;;;;5011951;28;20457;-75
2022/12/19 00:03:51;;;;;;;2.90;2.63;;;-1.60;98.00;;;;;;5011780;28;20959;-75
2022/12/19 00:06:19;;;;;;;3.67;3.17;;;-1.40;98.00;;;;;;5011724;28;21031;-75
2022/12/19 00:08:48;;;;;;;4.40;3.00;;;-1.30;98.00;;;;;;5012111;28;20453;-75
2022/12/19 00:11:18;;;;;;;4.80;3.10;;;-1.20;98.00;;;;;;5011809;28;20465;-75
2022/12/19 00:13:45;;;;;;;4.10;2.63;;;-1.20;98.00;;;;;;5011828;28;20526;-76
2022/12/19 00:16:17;;;;;;;2.63;2.30;;;-1.30;98.00;;;;;;5011846;28;20931;-76
2022/12/19 00:18:45;;;;;;;8.23;3.40;;;-1.40;98.00;;;;;;5012019;28;20515;-76
2022/12/19 00:21:18;;;;;;;3.10;2.73;;;-1.40;98.00;;;;;;5011965;28;20465;-76
2022/12/19 00:23:45;;;;;;;5.37;3.27;;;-1.40;98.00;;;;;;5011929;28;20465;-76
2022/12/19 00:26:14;;;;;;;4.57;3.23;;;-1.40;98.00;;;;;;5011910;28;20992;-75
2022/12/19 00:28:41;;;;;;;7.20;3.00;;;-1.40;98.00;;;;;;5012005;28;20515;-75
2022/12/19 00:31:12;;;;;;;2.37;2.20;;;-1.60;98.00;;;;;;5011821;28;20460;-75
2022/12/19 00:33:42;;;;;;;4.10;2.37;;;-1.50;98.00;;;;;;5013634;28;20911;-76
2022/12/19 00:36:12;;;;;;;3.70;3.30;;;-1.50;98.00;;;;;;5015488;28;20454;-76
2022/12/19 00:38:50;;;;;;;4.97;3.30;;;-1.40;98.00;;;;;;5015392;28;20461;-75
2022/12/19 00:41:20;;;;;;;4.47;3.13;;;-1.40;98.00;;;;;;5015447;28;20457;-75
2022/12/19 00:43:50;;;;;;;3.30;2.90;;;-1.50;98.00;;;;;;5014062;28;20855;-75
2022/12/19 00:46:17;;;;;;;8.20;3.63;;;-1.50;98.00;;;;;;5014879;28;20484;-75
2022/12/19 00:48:44;;;;;;;2.97;2.23;;;-1.50;98.00;;;;;;5015185;28;20991;-75
2022/12/19 00:51:13;;;;;;;3.83;3.70;;;-1.50;98.00;;;;;;5015101;28;20515;-75
2022/12/19 00:53:43;;;;;;;5.97;3.93;;;-1.40;98.00;;;;;;5014787;28;20464;-75
2022/12/19 00:56:13;;;;;;;3.33;2.90;;;-1.50;98.00;;;;;;5014897;28;20461;-75
2022/12/19 00:58:41;;;;;;;5.03;3.13;;;-1.50;98.00;;;;;;5013440;28;20470;-75
2022/12/19 01:01:09;;;;;;;3.03;2.10;;;-1.40;98.00;;;;;;5014714;28;20462;-75
2022/12/19 01:03:37;;;;;;;4.50;3.00;;;-1.30;98.00;;;;;;5014710;28;21101;-75
2022/12/19 01:06:04;;;;;;;4.90;3.90;;;-1.40;98.00;;;;;;5014651;28;20489;-75
2022/12/19 01:08:31;;;;;;;6.97;5.23;;;-1.40;98.00;;;;;;5014866;28;20465;-76
2022/12/19 01:11:00;;;;;;;5.47;3.23;;;-1.40;98.00;;;;;;5014578;28;20472;-75
2022/12/19 01:13:28;;;;;;;5.60;3.60;;;-1.40;98.00;;;;;;5014585;28;20541;-75
2022/12/19 01:15:55;;;;;;;3.73;3.47;;;-1.40;98.00;;;;;;5014595;28;21008;-75
2022/12/19 01:18:23;;;;;;;15.30;5.00;;;-1.40;98.00;;;;;;5014398;28;20460;-75
2022/12/19 01:20:51;;;;;;;8.37;3.60;;;-1.30;98.00;;;;;;5014279;28;20479;-76
2022/12/19 01:23:18;;;;;;;6.85;3.22;;;-1.10;98.00;;;;;;5015182;28;20508;-76
2022/12/19 01:25:52;;;;;;;6.27;4.17;;;-1.20;98.00;;;;;;5014424;28;20676;-75
2022/12/19 01:28:21;;;;;;;5.53;3.90;;;-1.30;98.00;;;;;;5013994;28;20467;-76
2022/12/19 01:30:48;;;;;;;4.68;3.65;;;-1.30;98.00;;;;;;5013482;28;20463;-76
2022/12/19 01:33:17;;;;;;;4.80;3.47;;;-1.30;98.00;;;;;;5014147;28;20193;-75
2022/12/19 01:35:46;;;;;;;5.80;3.10;;;-1.30;98.00;;;;;;5014394;28;20474;-75
2022/12/19 01:38:15;;;;;;;5.13;3.13;;;-1.00;98.00;;;;;;5013983;28;20470;-76
2022/12/19 01:40:49;;;;;;;3.57;2.50;;;-0.90;98.00;;;;;;5013821;28;21097;-76
2022/12/19 01:43:17;;;;;;;3.20;2.90;;;-0.90;98.00;;;;;;5013997;28;20469;-75
2022/12/19 01:45:47;;;;;;;4.40;3.00;;;-0.90;98.00;;;;;;5012329;28;20544;-75
2022/12/19 01:48:18;;;;;;;3.33;2.50;;;-1.00;98.00;;;;;;5013994;28;20494;-75
2022/12/19 01:50:56;;;;;;;6.73;2.80;;;-0.90;98.00;;;;;;5013812;28;20493;-76
2022/12/19 01:53:26;;;;;;;3.63;2.63;;;-1.00;98.00;;;;;;5013990;28;20461;-75
2022/12/19 01:55:54;;;;;;;3.03;2.33;;;-1.00;98.00;;;;;;5013759;28;20962;-75
2022/12/19 01:58:25;;;;;;;2.93;2.40;;;-0.90;98.00;;;;;;5013602;28;20455;-75
2022/12/19 02:00:55;;;;;;;2.80;2.17;;;-0.80;98.00;;;;;;5013831;28;20515;-75
2022/12/19 02:03:32;;;;;;;3.83;3.57;;;-0.70;98.00;;;;;;5013602;28;20963;-75
2022/12/19 02:06:00;;;;;;;9.80;4.97;;;-0.70;98.00;;;;;;5012892;28;20496;-76
2022/12/19 02:08:28;;;;;;;6.80;3.40;;;-0.90;98.00;;;;;;5012364;28;20957;-76
2022/12/19 02:10:55;;;;;;;9.40;4.60;;;-0.90;98.00;;;;;;5013601;28;20951;-76
2022/12/19 02:13:23;;;;;;;4.80;3.40;;;-0.90;98.00;;;;;;5013796;28;20458;-75
2022/12/19 02:16:00;;;;;;;5.27;3.60;;;-1.00;98.00;;;;;;5013480;28;20461;-75
2022/12/19 02:18:37;;;;;;;4.80;2.80;;;-0.90;98.00;;;;;;5013490;28;20459;-75
2022/12/19 02:21:22;;;;;;;3.20;2.70;;;-1.00;98.00;;;;;;5013584;28;20958;-75
2022/12/19 02:24:17;;;;;;;3.30;3.00;;;-1.00;98.00;;;;;;5013457;28;20466;-76
2022/12/19 02:27:00;;;;;;;3.47;2.60;;;-1.00;98.00;;;;;;5012406;28;20481;-75
2022/12/19 02:30:01;;;;;;;3.73;2.53;;;-1.00;98.00;;;;;;5013457;28;20465;-75
2022/12/19 02:32:34;;;;;;;3.27;3.10;;;-1.00;98.00;;;;;;5013714;28;20883;-75
2022/12/19 02:35:10;;;;;;;7.40;4.33;;;-1.00;98.00;;;;;;5013132;28;20841;-76
2022/12/19 02:37:45;;;;;;;4.60;3.33;;;-1.00;98.00;;;;;;5012950;28;20466;-75
2022/12/19 02:40:17;;;;;;;8.83;4.63;;;-0.90;98.00;;;;;;5013136;28;20469;-75
2022/12/19 02:42:49;;;;;;;5.43;3.33;;;-0.80;98.00;;;;;;5012782;28;20462;-76
2022/12/19 02:45:19;;;;;;;6.13;3.90;;;-0.70;98.00;;;;;;5013126;28;20462;-75
2022/12/19 02:47:48;;;;;;;3.80;2.80;;;-0.70;98.00;;;;;;5013084;28;20540;-75
2022/12/19 02:50:15;;;;;;;4.60;3.33;;;-0.70;98.00;;;;;;5012879;28;20457;-76
2022/12/19 02:52:46;;;;;;;4.90;3.60;;;-0.70;98.00;;;;;;5011714;28;20933;-76
2022/12/19 02:55:20;;;;;;;3.93;3.17;;;-0.70;98.00;;;;;;5012237;28;20512;-75
2022/12/19 02:58:08;;;;;;;4.43;2.73;;;-0.70;98.00;;;;;;5011305;28;20531;-76
2022/12/19 03:00:41;;;;;;;9.27;3.90;;;-0.60;98.00;;;;;;5012699;28;20473;-75
2022/12/19 03:03:15;;;;;;;3.87;2.70;;;-0.50;98.00;;;;;;5012427;28;20474;-75
2022/12/19 03:05:50;;;;;;;4.00;2.57;;;-0.60;98.00;;;;;;5011953;28;20493;-76
2022/12/19 03:08:24;;;;;;;8.33;4.40;;;-0.60;98.00;;;;;;5012611;28;20497;-75
2022/12/19 03:10:58;;;;;;;4.47;2.90;;;-0.70;98.00;;;;;;5012572;28;20556;-76
2022/12/19 03:13:28;;;;;;;7.03;3.47;;;-0.70;98.00;;;;;;5012515;28;20463;-76
2022/12/19 03:15:57;;;;;;;5.20;3.23;;;-0.70;98.00;;;;;;5012579;28;20470;-75
2022/12/19 03:18:26;;;;;;;22.93;4.37;;;-0.40;98.00;;;;;;5012819;28;20489;-76
2022/12/19 03:21:02;;;;;;;4.13;3.03;;;-0.40;98.00;;;;;;5012760;28;20462;-76
2022/12/19 03:23:30;;;;;;;3.93;3.50;;;-0.50;98.00;;;;;;5011489;28;20468;-75
2022/12/19 03:26:02;;;;;;;7.77;2.80;;;-0.60;98.00;;;;;;5012514;28;20467;-75
2022/12/19 03:28:36;;;;;;;4.20;3.33;;;-0.60;98.00;;;;;;5012482;28;20484;-76
2022/12/19 03:31:05;;;;;;;4.30;3.33;;;-0.50;98.00;;;;;;5011981;28;20828;-75
2022/12/19 03:33:34;;;;;;;4.23;2.83;;;-0.40;98.00;;;;;;5012345;28;20497;-75
2022/12/19 03:36:06;;;;;;;5.50;2.73;;;-0.30;98.00;;;;;;5012115;28;20549;-76
2022/12/19 03:38:35;;;;;;;6.40;3.33;;;-0.20;98.00;;;;;;5012329;28;20471;-75
2022/12/19 03:41:04;;;;;;;5.70;3.47;;;0.00;98.00;;;;;;5012103;28;20575;-76
2022/12/19 03:43:32;;;;;;;3.60;3.47;;;0.00;98.00;;;;;;5012085;28;20868;-75
2022/12/19 03:46:03;;;;;;;7.73;4.50;;;-0.10;98.00;;;;;;5012193;28;20477;-76
2022/12/19 03:48:38;;;;;;;7.13;2.97;;;-0.20;98.00;;;;;;5012115;28;20640;-76
2022/12/19 03:51:15;;;;;;;4.07;2.57;;;-0.30;98.00;;;;;;5012236;28;20453;-75
2022/12/19 03:53:52;;;;;;;5.00;3.00;;;-0.30;98.00;;;;;;5012194;28;20464;-76
2022/12/19 03:56:27;;;;;;;8.23;3.43;;;-0.10;98.00;;;;;;5011988;28;20461;-76
2022/12/19 03:59:01;;;;;;;2.80;2.10;;;-0.10;98.00;;;;;;5012179;28;20453;-75
2022/12/19 04:01:29;;;;;;;7.13;2.90;;;0.00;98.00;;;;;;5011941;28;20472;-75
2022/12/19 04:04:02;;;;;;;5.73;3.90;;;0.00;98.00;;;;;;5010965;28;20508;-76
2022/12/19 04:06:31;;;;;;;17.50;2.93;;;-0.10;98.00;;;;;;5012395;28;20473;-76
2022/12/19 04:09:01;;;;;;;6.17;3.50;;;-0.20;98.00;;;;;;5015740;28;20497;-75
2022/12/19 04:11:34;;;;;;;4.27;2.53;;;-0.20;98.00;;;;;;5015824;28;20988;-75
2022/12/19 04:14:06;;;;;;;2.80;2.70;;;-0.20;98.00;;;;;;5015990;28;20556;-75
2022/12/19 04:16:48;;;;;;;6.23;2.83;;;-0.10;98.00;;;;;;5014605;28;20519;-75
2022/12/19 04:19:23;;;;;;;3.47;3.23;;;-0.10;98.00;;;;;;5015857;28;21014;-75
2022/12/19 04:21:55;;;;;;;11.80;3.53;;;-0.10;98.00;;;;;;5014943;28;20470;-75
2022/12/19 04:24:28;;;;;;;5.10;2.70;;;-0.10;98.00;;;;;;5015734;28;20809;-75
2022/12/19 04:26:57;;;;;;;7.63;2.67;;;-0.10;98.00;;;;;;5015622;28;20474;-75
2022/12/19 04:29:26;;;;;;;4.60;2.60;;;-0.10;98.00;;;;;;5014518;28;20459;-75
2022/12/19 04:31:53;;;;;;;7.37;4.10;;;-0.20;98.00;;;;;;5015488;28;20462;-74
2022/12/19 04:34:22;;;;;;;3.00;2.57;;;-0.20;98.00;;;;;;5015105;28;20467;-75
2022/12/19 04:36:51;;;;;;;10.27;3.67;;;0.00;98.00;;;;;;5015393;28;20846;-74
2022/12/19 04:39:19;;;;;;;7.80;3.70;;;-0.10;98.00;;;;;;5014232;28;20466;-75
2022/12/19 04:41:46;;;;;;;4.27;2.93;;;0.00;98.00;;;;;;5015147;28;20469;-75
2022/12/19 04:44:13;;;;;;;3.53;2.20;;;0.20;98.00;;;;;;5015129;28;20561;-75
2022/12/19 04:46:40;;;;;;;4.40;3.03;;;0.30;98.00;;;;;;5015179;28;20466;-75
2022/12/19 04:49:08;;;;;;;5.27;2.93;;;0.10;98.00;;;;;;5015145;28;21029;-75
2022/12/19 04:51:36;;;;;;;4.83;3.10;;;0.10;98.00;;;;;;5015125;28;20453;-75
2022/12/19 04:54:03;;;;;;;4.00;3.20;;;0.10;98.00;;;;;;5015365;28;20469;-75
2022/12/19 04:56:30;;;;;;;14.20;3.80;;;0.20;98.00;;;;;;5014097;28;21003;-75
2022/12/19 04:58:58;;;;;;;2.50;2.30;;;0.10;98.00;;;;;;5015179;28;20527;-75
2022/12/19 05:01:26;;;;;;;9.00;3.10;;;0.10;98.00;;;;;;5014899;28;20969;-75
2022/12/19 05:03:53;;;;;;;3.93;3.13;;;0.10;98.00;;;;;;5015231;28;20817;-75
2022/12/19 05:06:21;;;;;;;3.77;3.50;;;0.10;98.00;;;;;;5014942;28;20485;-76
2022/12/19 05:08:50;;;;;;;6.57;3.80;;;0.20;98.00;;;;;;5014790;28;20502;-75
2022/12/19 05:11:18;;;;;;;4.33;2.70;;;0.20;98.00;;;;;;5014785;28;20467;-75
2022/12/19 05:13:45;;;;;;;2.00;1.90;;;0.20;98.00;;;;;;5014633;28;20462;-75
2022/12/19 05:16:14;;;;;;;7.27;3.50;;;0.30;98.00;;;;;;5014575;28;20464;-75
2022/12/19 05:18:42;;;;;;;12.33;4.23;;;0.40;98.00;;;;;;5013497;28;20455;-75
2022/12/19 05:21:09;;;;;;;6.67;2.63;;;0.40;98.00;;;;;;5014331;28;20462;-75
2022/12/19 05:23:37;;;;;;;7.90;2.77;;;0.40;98.00;;;;;;5014449;28;20454;-75
2022/12/19 05:26:06;;;;;;;2.87;2.30;;;0.30;98.00;;;;;;5014448;28;20463;-75
2022/12/19 05:28:35;;;;;;;8.00;2.97;;;0.30;98.00;;;;;;5014386;28;20486;-76
2022/12/19 05:31:04;;;;;;;4.03;2.47;;;0.20;98.00;;;;;;5014428;28;20545;-75
2022/12/19 05:33:31;;;;;;;5.27;3.10;;;0.20;98.00;;;;;;5014318;28;20459;-76
2022/12/19 05:35:58;;;;;;;4.63;2.87;;;0.40;98.00;;;;;;5014258;28;20462;-75
2022/12/19 05:38:26;;;;;;;2.57;2.37;;;0.30;98.00;;;;;;5014164;28;20459;-75
2022/12/19 05:40:53;;;;;;;3.23;2.23;;;0.30;98.00;;;;;;5013103;28;20524;-75
2022/12/19 05:43:22;;;;;;;7.10;3.50;;;0.60;98.00;;;;;;5014110;28;20505;-75
2022/12/19 05:45:49;;;;;;;8.77;3.10;;;0.80;98.00;;;;;;5014180;28;20876;-75
2022/12/19 05:48:16;;;;;;;4.37;3.10;;;0.60;98.00;;;;;;5014095;28;20563;-75
2022/12/19 05:50:49;;;;;;;4.00;2.07;;;0.50;98.00;;;;;;5013568;28;20945;-75
2022/12/19 05:53:17;;;;;;;7.17;3.30;;;0.40;98.00;;;;;;5013290;28;20494;-75
2022/12/19 05:55:46;;;;;;;4.90;3.80;;;0.50;98.00;;;;;;5013733;28;20459;-75
2022/12/19 05:58:13;;;;;;;3.93;2.67;;;0.40;98.00;;;;;;5012919;28;20945;-75
2022/12/19 06:00:42;;;;;;;21.27;3.70;;;0.30;98.00;;;;;;5013719;28;20451;-75
2022/12/19 06:03:09;;;;;;;7.33;3.60;;;0.30;98.00;;;;;;5014009;28;20471;-75
2022/12/19 06:05:38;;;;;;;5.47;2.70;;;0.30;98.00;;;;;;5013650;28;20463;-75
2022/12/19 06:08:06;;;;;;;4.63;2.90;;;0.40;98.00;;;;;;5013383;28;21035;-75
2022/12/19 06:10:33;;;;;;;5.70;3.80;;;0.40;98.00;;;;;;5013319;28;20542;-75
2022/12/19 06:13:01;;;;;;;4.23;3.13;;;0.40;98.00;;;;;;5013674;28;20470;-75
2022/12/19 06:15:28;;;;;;;2.90;1.93;;;0.50;98.00;;;;;;5013289;28;20467;-75
2022/12/19 06:17:58;;;;;;;6.57;3.50;;;0.60;98.00;;;;;;5013420;28;20456;-75
2022/12/19 06:20:25;;;;;;;5.87;2.80;;;0.70;98.00;;;;;;5013314;28;20518;-75
2022/12/19 06:22:52;;;;;;;6.30;3.80;;;0.60;98.00;;;;;;5013479;28;20829;-76
2022/12/19 06:25:19;;;;;;;3.63;2.63;;;0.60;98.00;;;;;;5013163;28;20452;-75
2022/12/19 06:27:46;;;;;;;3.73;3.17;;;0.60;98.00;;;;;;5012798;28;20842;-75
2022/12/19 06:30:15;;;;;;;5.20;2.63;;;0.70;98.00;;;;;;5012862;28;20463;-75
2022/12/19 06:32:42;;;;;;;3.73;2.43;;;0.70;98.00;;;;;;5013127;28;20490;-75
2022/12/19 06:35:11;;;;;;;3.37;2.10;;;0.80;98.00;;;;;;5013174;28;20474;-75
2022/12/19 06:37:38;;;;;;;5.33;2.60;;;0.90;98.00;;;;;;5013217;28;20813;-75
2022/12/19 06:40:06;;;;;;;4.50;3.00;;;0.80;98.00;;;;;;5013105;28;20467;-74
2022/12/19 06:42:32;;;;;;;12.33;3.23;;;0.60;98.00;;;;;;5012957;28;20529;-76
2022/12/19 06:44:59;;;;;;;4.43;2.67;;;0.60;98.00;;;;;;5013014;28;20996;-75
2022/12/19 06:47:26;;;;;;;3.73;2.77;;;0.60;98.00;;;;;;5012977;28;20456;-75
2022/12/19 06:49:54;;;;;;;2.87;2.67;;;0.60;98.00;;;;;;5013323;28;20463;-75
2022/12/19 06:52:22;;;;;;;5.83;3.43;;;0.80;98.00;;;;;;5012786;28;20458;-75
2022/12/19 06:54:49;;;;;;;4.30;2.53;;;0.80;98.00;;;;;;5013228;28;20540;-76
2022/12/19 06:57:16;;;;;;;6.47;3.37;;;0.80;98.00;;;;;;5012935;28;20462;-75
2022/12/19 06:59:43;;;;;;;4.17;2.77;;;0.90;98.00;;;;;;5013034;28;20469;-75
2022/12/19 07:02:22;;;;;;;7.17;3.10;;;0.80;98.00;;;;;;5012958;28;20467;-75
2022/12/19 07:04:55;;;;;;;6.07;2.70;;;0.80;98.00;;;;;;5012724;28;20873;-75
2022/12/19 07:07:24;;;;;;;2.50;2.23;;;0.80;98.00;;;;;;5012458;28;20463;-75
2022/12/19 07:09:51;;;;;;;4.03;2.80;;;0.80;98.00;;;;;;5012308;28;20494;-76
2022/12/19 07:12:18;;;;;;;5.47;3.20;;;0.80;98.00;;;;;;5012702;28;20467;-75
2022/12/19 07:14:45;;;;;;;2.43;2.30;;;0.80;98.00;;;;;;5012468;28;20459;-75
2022/12/19 07:17:13;;;;;;;5.43;3.33;;;0.90;98.00;;;;;;5012668;28;20467;-75
2022/12/19 07:19:41;;;;;;;7.00;3.53;;;1.00;98.00;;;;;;5012691;28;20453;-75
2022/12/19 07:22:09;;;;;;;10.93;3.03;;;1.10;98.00;;;;;;5012555;28;20463;-75
2022/12/19 07:24:38;;;;;;;5.57;3.07;;;1.10;98.00;;;;;;5012513;28;20469;-75
2022/12/19 07:27:08;;;;;;;6.23;3.30;;;1.00;98.00;;;;;;5012512;28;20463;-75
2022/12/19 07:29:35;;;;;;;4.27;2.70;;;1.00;98.00;;;;;;5012349;28;20483;-75
2022/12/19 07:32:02;;;;;;;6.70;2.63;;;1.00;98.00;;;;;;5012679;28;20459;-75
2022/12/19 07:34:29;;;;;;;3.83;2.57;;;1.00;98.00;;;;;;5012381;28;20496;-75
2022/12/19 07:36:57;;;;;;;5.70;2.70;;;1.20;98.00;;;;;;5012366;28;20546;-76
2022/12/19 07:39:24;;;;;;;2.50;2.30;;;1.10;98.00;;;;;;5012313;28;20467;-75
2022/12/19 07:41:53;;;;;;;3.00;2.80;;;1.10;98.00;;;;;;5014223;28;21095;-75
2022/12/19 07:44:21;;;;;;;5.10;3.23;;;1.10;98.00;;;;;;5018851;28;20497;-75
2022/12/19 07:46:48;;;;;;;13.40;4.83;;;1.00;98.00;;;;;;5018940;28;20857;-76
2022/12/19 07:49:15;;;;;;;6.43;4.13;;;1.00;98.00;;;;;;5018846;28;20483;-76
2022/12/19 07:51:42;;;;;;;4.23;2.87;;;1.00;98.00;;;;;;5018793;28;20463;-75
2022/12/19 07:54:10;;;;;;;6.20;4.20;;;1.00;98.00;;;;;;5004817;28;20471;-75
2022/12/19 07:56:37;;;;;;;3.73;2.93;;;1.10;98.00;;;;;;4997962;28;20471;-76
2022/12/19 07:59:05;;;;;;;4.00;2.90;;;1.20;98.00;;;;;;4997431;28;20488;-75
2022/12/19 08:01:32;;;;;;;6.70;3.73;;;1.40;98.00;;;;;;4998908;28;20466;-74
2022/12/19 08:03:59;;;;;;;3.00;2.63;;;1.40;98.00;;;;;;4998665;28;20459;-75
2022/12/19 08:06:27;;;;;;;9.73;4.17;;;1.50;98.00;;;;;;4998791;28;20455;-75
2022/12/19 08:08:55;;;;;;;8.27;3.80;;;1.50;98.00;;;;;;4998677;28;21017;-75
2022/12/19 08:11:26;;;;;;;6.60;3.07;;;1.40;98.00;;;;;;4999238;28;20461;-75
2022/12/19 08:13:54;;;;;;;6.20;4.30;;;1.40;98.00;;;;;;4998758;28;20475;-75
2022/12/19 08:16:24;;;;;;;4.17;2.97;;;1.40;98.00;;;;;;4998760;28;20467;-72
2022/12/19 08:18:52;;;;;;;4.90;2.80;;;1.60;98.00;;;;;;4998970;28;20474;-72
2022/12/19 08:21:19;;;;;;;8.20;3.87;;;1.70;98.00;;;;;;4998659;28;20483;-72
2022/12/19 08:23:46;;;;;;;6.30;3.70;;;1.80;98.00;;;;;;4998838;28;20452;-72
2022/12/19 08:26:15;;;;;;;4.13;3.53;;;1.90;98.00;;;;;;4998734;28;20530;-72
2022/12/19 08:28:50;;;;;;;5.30;3.43;;;1.80;98.00;;;;;;4998666;28;20487;-72
2022/12/19 08:31:19;;;;;;;5.20;3.67;;;1.80;98.00;;;;;;4998836;28;20463;-72
2022/12/19 08:33:48;;;;;;;5.83;3.73;;;1.80;98.00;;;;;;4998656;28;20464;-71
2022/12/19 08:36:17;;;;;;;7.13;4.03;;;1.80;98.00;;;;;;4998741;28;20888;-72
2022/12/19 08:38:45;;;;;;;4.37;3.37;;;1.90;98.00;;;;;;4998747;28;20464;-72
2022/12/19 08:41:13;;;;;;;7.97;3.77;;;2.00;98.00;;;;;;4999023;28;20488;-72
2022/12/19 08:43:40;;;;;;;6.27;3.10;;;1.90;98.00;;;;;;4998760;28;20459;-72
2022/12/19 08:46:08;;;;;;;8.97;4.17;;;1.90;98.00;;;;;;4998968;28;20456;-72
2022/12/19 08:48:36;;;;;;;6.47;3.90;;;2.00;98.00;;;;;;4998642;28;20567;-72
2022/12/19 08:51:06;;;;;;;5.60;3.80;;;2.10;98.00;;;;;;4998463;28;20863;-72
2022/12/19 08:53:36;;;;;;;7.80;4.27;;;2.10;98.00;;;;;;4996097;28;20815;-72
2022/12/19 08:56:06;;;;;;;6.90;5.00;;;2.10;98.00;;;;;;4995317;28;20536;-72
2022/12/19 08:58:33;;;;;;;7.97;4.47;;;2.10;98.00;;;;;;4995081;28;20495;-72
2022/12/19 09:01:03;;;;;;;8.60;5.10;;;2.20;98.00;;;;;;4995216;28;20495;-72
2022/12/19 09:03:31;;;;;;;11.40;4.50;;;2.30;98.00;;;;;;4994940;28;20472;-72
2022/12/19 09:05:59;;;;;;;13.77;5.07;;;2.50;98.00;;;;;;4994536;28;20464;-72
2022/12/19 09:08:28;;;;;;;6.53;4.50;;;2.50;98.00;;;;;;4994127;28;20472;-72
2022/12/19 09:10:59;;;;;;;7.50;3.53;;;2.50;98.00;;;;;;4993948;28;20488;-72
2022/12/19 09:13:26;;;;;;;10.40;5.70;;;2.60;98.00;;;;;;4992857;28;20547;-72
2022/12/19 09:16:01;;;;;;;14.70;5.40;;;2.60;98.00;;;;;;4994011;28;20496;-72
2022/12/19 09:18:28;;;;;;;5.00;3.80;;;2.60;98.00;;;;;;4994204;28;20490;-73
2022/12/19 09:20:55;;;;;;;5.30;4.03;;;2.60;98.00;;;;;;4994331;28;20826;-72
2022/12/19 09:23:22;;;;;;;7.00;3.87;;;2.50;98.00;;;;;;4994264;28;20448;-72
2022/12/19 09:25:51;;;;;;;7.00;3.40;;;2.50;98.00;;;;;;4994169;28;20880;-72
2022/12/19 09:28:18;;;;;;;9.93;4.90;;;2.50;98.00;;;;;;4994758;28;20515;-72
2022/12/19 09:30:45;;;;;;;9.50;4.67;;;2.50;98.00;;;;;;4994823;28;20954;-72
2022/12/19 09:33:12;;;;;;;8.13;4.30;;;2.60;98.00;;;;;;4994855;28;20460;-72
2022/12/19 09:35:40;;;;;;;6.23;3.73;;;2.70;98.00;;;;;;4994221;28;20472;-72
2022/12/19 09:38:07;;;;;;;10.47;4.20;;;3.00;98.00;;;;;;4995132;28;20465;-72
2022/12/19 09:40:51;;;;;;;8.20;4.90;;;3.00;98.00;;;;;;4994928;28;20453;-72
2022/12/19 09:43:33;;;;;;;11.53;4.97;;;3.00;98.00;;;;;;4988673;28;20843;-73
2022/12/19 09:46:10;;;;;;;6.90;3.70;;;3.00;98.00;;;;;;4995892;28;20837;-72
2022/12/19 09:48:37;;;;;;;7.83;5.50;;;2.90;98.00;;;;;;4993461;28;20460;-72
2022/12/19 09:51:12;;;;;;;8.83;5.13;;;3.00;98.00;;;;;;4992335;28;20459;-72
2022/12/19 09:53:55;;;;;;;7.33;3.47;;;3.10;98.00;;;;;;4991822;28;21076;-72
2022/12/19 09:56:26;;;;;;;15.00;4.87;;;3.20;98.00;;;;;;4993988;28;20473;-73
2022/12/19 09:59:01;;;;;;;6.73;3.80;;;3.20;98.00;;;;;;4997057;28;21335;-73
2022/12/19 10:01:33;;;;;;;15.00;5.30;;;3.30;98.00;;;;;;5004314;28;21041;-73
2022/12/19 10:04:06;;;;;;;9.37;4.50;;;3.20;98.00;;;;;;4990603;28;20457;-73
2022/12/19 10:06:34;;;;;;;10.23;4.20;;;3.20;98.00;;;;;;4990899;28;20515;-73
2022/12/19 10:09:01;;;;;;;9.40;4.87;;;3.30;98.00;;;;;;4994131;28;20487;-73
2022/12/19 10:11:45;;;;;;;11.17;4.43;;;3.40;98.00;;;;;;4994276;28;20489;-73
2022/12/19 10:14:50;;;;;;;8.73;3.53;;;3.50;98.00;;;;;;4994121;28;20456;-73
2022/12/19 10:17:34;;;;;;;7.73;4.10;;;3.60;98.00;;;;;;4993313;28;20476;-73
2022/12/19 10:20:24;;;;;;;5.03;4.13;;;3.60;98.00;;;;;;4983488;28;20460;-73
2022/12/19 10:23:04;;;;;;;12.07;5.03;;;3.60;98.00;;;;;;4994070;28;20537;-72
2022/12/19 10:25:41;;;;;;;9.90;5.63;;;3.70;98.00;;;;;;4992908;28;20510;-73
2022/12/19 10:28:25;;;;;;;10.33;5.43;;;3.90;98.00;;;;;;4992280;28;20467;-72
2022/12/19 10:31:10;;;;;;;7.20;4.20;;;4.00;98.00;;;;;;4992171;28;20636;-72
2022/12/19 10:33:45;;;;;;;9.03;3.73;;;4.00;98.00;;;;;;4997230;28;20813;-72
2022/12/19 10:36:14;;;;;;;6.47;4.20;;;4.00;98.00;;;;;;5000043;28;20453;-73
2022/12/19 10:38:57;;;;;;;7.73;4.43;;;4.10;98.00;;;;;;4974668;28;20462;-73
2022/12/19 10:41:28;;;;;;;7.80;4.10;;;4.20;98.00;;;;;;4989873;28;20859;-73
2022/12/19 10:44:04;;;;;;;28.63;4.87;;;4.10;98.00;;;;;;4981685;28;20520;-72
2022/12/19 10:46:41;;;;;;;8.90;4.90;;;4.30;98.00;;;;;;4990521;28;20829;-72
2022/12/19 10:49:13;;;;;;;10.10;4.90;;;4.20;98.00;;;;;;4989910;28;20483;-71
2022/12/19 10:51:41;;;;;;;10.73;4.20;;;4.10;98.00;;;;;;4989434;28;20914;-72
2022/12/19 10:54:08;;;;;;;8.13;5.27;;;4.20;98.00;;;;;;4990298;28;20757;-72
2022/12/19 10:56:37;;;;;;;6.83;4.00;;;4.10;98.00;;;;;;4988029;28;20457;-71
2022/12/19 10:59:16;;;;;;;10.50;5.60;;;4.20;98.00;;;;;;4990201;28;20996;-69
2022/12/19 11:01:45;;;;;;;8.37;4.17;;;4.30;98.00;;;;;;4989722;28;20527;-73
2022/12/19 11:04:24;;;;;;;7.53;4.17;;;4.50;98.00;;;;;;4989894;28;20473;-72
2022/12/19 11:06:52;;;;;;;14.30;6.47;;;4.60;98.00;;;;;;4990129;28;20462;-72
2022/12/19 11:09:26;;;;;;;17.63;5.30;;;4.70;98.00;;;;;;4992976;28;20548;-73
2022/12/19 11:12:02;;;;;;;9.87;5.83;;;4.70;98.00;;;;;;4992455;28;20454;-72
2022/12/19 11:14:31;;;;;;;9.17;4.40;;;4.80;98.00;;;;;;4997697;28;20544;-72
2022/12/19 11:17:00;;;;;;;12.57;5.03;;;4.60;98.00;;;;;;4991704;28;20475;-72
2022/12/19 11:19:32;;;;;;;11.67;5.63;;;4.60;98.00;;;;;;4997386;28;20477;-73
2022/12/19 11:22:03;;;;;;;19.20;6.03;;;4.60;98.00;;;;;;4983846;28;20797;-72
2022/12/19 11:24:35;;;;;;;14.77;5.87;;;4.80;98.00;;;;;;4989785;28;20448;-73
2022/12/19 11:27:03;;;;;;;10.63;5.53;;;4.90;98.00;;;;;;4988089;28;20579;-73
2022/12/19 11:29:45;;;;;;;9.87;5.20;;;5.00;98.00;;;;;;4989555;28;20488;-73
2022/12/19 11:32:29;;;;;;;7.80;4.53;;;5.10;98.00;;;;;;4989828;28;20462;-73
2022/12/19 11:35:01;;;;;;;11.53;5.17;;;5.10;98.00;;;;;;4989564;28;20904;-72
2022/12/19 11:37:37;;;;;;;15.20;5.80;;;5.30;98.00;;;;;;4989521;28;20509;-73
2022/12/19 11:40:10;;;;;;;10.50;5.13;;;5.30;98.00;;;;;;4989523;28;20969;-72
2022/12/19 11:42:46;;;;;;;17.63;5.23;;;5.30;98.00;;;;;;4988097;28;20478;-73
2022/12/19 11:45:18;;;;;;;14.90;5.80;;;5.20;98.00;;;;;;4987505;28;20813;-73
2022/12/19 11:47:52;;;;;;;14.80;5.67;;;5.20;98.00;;;;;;4989051;28;20982;-72
2022/12/19 11:50:24;;;;;;;12.60;6.00;;;5.10;98.00;;;;;;4987054;28;20511;-73
2022/12/19 11:52:58;;;;;;;15.77;4.87;;;5.20;98.00;;;;;;4988939;28;20902;-73
2022/12/19 11:55:28;;;;;;;14.77;6.43;;;5.40;98.00;;;;;;4989017;28;20457;-73
2022/12/19 11:57:55;;;;;;;11.43;6.03;;;5.50;98.00;;;;;;4989464;28;20465;-73
2022/12/19 12:00:23;;;;;;;14.30;5.70;;;5.40;98.00;;;;;;4989054;28;20798;-73
2022/12/19 12:03:21;;;;;;;11.27;5.80;;;5.40;98.00;;;;;;4989079;28;20458;-73
2022/12/19 12:05:49;;;;;;;16.73;6.13;;;5.40;98.00;;;;;;4963360;28;20489;-70
2022/12/19 12:08:41;;;;;;;9.03;5.40;;;5.40;98.00;;;;;;4989212;28;20460;-72
2022/12/19 12:11:22;;;;;;;10.57;5.27;;;5.40;98.00;;;;;;4984363;28;20497;-73
2022/12/19 12:14:11;;;;;;;19.50;8.00;;;5.50;98.00;;;;;;4989024;28;20468;-72
2022/12/19 12:16:44;;;;;;;11.70;5.60;;;5.50;98.00;;;;;;4989106;28;20463;-73
2022/12/19 12:19:19;;;;;;;16.57;5.70;;;5.40;98.00;;;;;;4989557;28;20516;-73
2022/12/19 12:21:55;;;;;;;13.50;5.23;;;5.40;98.00;;;;;;4988542;28;20554;-72
2022/12/19 12:24:39;;;;;;;13.83;5.10;;;5.30;98.00;;;;;;4996317;28;20793;-72
2022/12/19 12:27:23;;;;;;;15.17;6.83;;;5.40;98.00;;;;;;4989133;28;20463;-72
2022/12/19 12:29:59;;;;;;;10.00;6.30;;;5.30;98.00;;;;;;4992371;28;20497;-72
2022/12/19 12:32:43;;;;;;;9.60;6.20;;;5.30;98.00;;;;;;4981516;28;20475;-72
2022/12/19 12:35:21;;;;;;;13.90;5.40;;;5.50;98.00;;;;;;4992339;28;20470;-72
2022/12/19 12:37:59;;;;;;;20.57;7.33;;;5.70;98.00;;;;;;4992531;28;20532;-71
2022/12/19 12:40:45;;;;;;;12.83;5.27;;;5.80;98.00;;;;;;4992439;28;20461;-72
2022/12/19 12:43:28;;;;;;;9.50;4.80;;;5.80;98.00;;;;;;4992564;28;20461;-72
2022/12/19 12:45:55;;;;;;;15.27;6.13;;;5.90;98.00;;;;;;4992410;28;20457;-72
2022/12/19 12:48:27;;;;;;;15.30;6.47;;;6.00;98.00;;;;;;4992643;28;20468;-72
2022/12/19 12:50:56;;;;;;;14.00;5.50;;;6.00;98.00;;;;;;4990161;28;20497;-73
2022/12/19 12:53:26;;;;;;;22.70;8.20;;;6.00;98.00;;;;;;4992150;28;20460;-73
2022/12/19 12:55:55;;;;;;;12.53;5.10;;;6.20;98.00;;;;;;4992063;28;20493;-72
2022/12/19 12:59:19;;;;;;;11.77;5.27;;;6.30;98.00;;;;;;4991939;28;20463;-73
2022/12/19 13:01:51;;;;;;;16.40;5.10;;;6.40;98.00;;;;;;4931886;29;20464;-73
2022/12/19 13:04:27;;;;;;;12.70;5.80;;;6.50;98.00;;;;;;4931674;29;20851;-73
2022/12/19 13:07:27;;;;;;;9.60;4.63;;;6.50;98.00;;;;;;4963227;28;20513;-72
2022/12/19 13:10:26;;;;;;;14.77;6.50;;;6.40;98.00;;;;;;4983866;28;20478;-71
2022/12/19 13:13:00;;;;;;;9.53;5.33;;;6.40;98.00;;;;;;4969531;28;20458;-72